Terminal Aerodrome Forecast
Issued by NWS

Home | Current Version | Previous Version | Text Only | Print | Product List | Glossary Off
Versions: 1 2 3 4 5 6 7 8 9 10 11 12 13 14 15 16 17

431
FTUS43 KABR 220236 AAA
TAFPIR
TAF AMD
KPIR 220236Z 2203/2224 VRB06KT P6SM VCSH BKN080 OVC150
      TEMPO 2203/2204 -TSRA BKN060CB OVC110
     FM220400 26006KT P6SM BKN200
     FM221600 29011KT P6SM SCT200
     FM221800 30015G23KT P6SM SCT250
     FM222300 34012KT P6SM BKN080=

USA.gov is the U.S. government's official web portal to all federal, state and local government web resources and services.